X  Sluiten METAR luchtvaart weer gegevens      EHGG Eelde Airport
Temperatuur
21°C Temperatuur
14°C Dauwpunt
64% Vochtigheid



Wind
10 KM/U
6 MPH
3 M/S
5 KTS



90°
O
Huidig weer

Lichte Motregen Lichte Motregen
Luchtdruk 994.92 (hPa) - 29.38 (inHg)
Zicht 6.2 (mijl) - 10 (km)
Vliegveld
Vliegveld code EHGG

Locatie : Eelde Airport
Afstand: 47 (km)

Metar:
EHGG 231655Z AUTO 09005KT 050V120 9999 -DZ NSC 21/14 Q0995 REDZ NOSIG

Tijd: 23-05-2022 18:55 CEST